Flight Track Log - Related Links

Times and Time Zones

All times are in EDT time to prevent confusion due to time zone crossing. See the VOZ187 flight status page for this flight to view local times or setup timezone preferences in your user account.

Time Position Orientation Groundspeed Altitude Reporting Facility
EDT Latitude Longitude Course Direction KTS MPH feet Rate Location/Type
Wed 03:13:57 PM -37.0480 174.6490 266° West 246 283 3,600  Level FlightAware ADS-B
Wed 03:14:27 PM -37.0340 174.6060 292° West 284 327 4,100 1,050 Climbing FlightAware ADS-B
Wed 03:14:37 PM -37.0260 174.5900 302° West 299 344 4,300 533 Climbing FlightAware ADS-B
Wed 03:15:12 PM -37.0030 174.5410 300° West 310 357 4,500 213 Climbing FlightAware ADS-B
Wed 03:17:00 PM -36.9093 174.3048 296° West  Level FlightAware Approximate
Wed 03:18:00 PM -36.8571 174.1739 296° West  Level FlightAware Approximate
Wed 03:19:00 PM -36.8047 174.0431 297° West  Level FlightAware Approximate
Wed 03:20:00 PM -36.7522 173.9125 297° West  Level FlightAware Approximate
Wed 03:21:00 PM -36.6995 173.7821 297° West  Level FlightAware Approximate
Wed 03:22:00 PM -36.6467 173.6518 297° West  Level FlightAware Approximate
Wed 03:23:00 PM -36.5938 173.5218 297° West  Level FlightAware Approximate
Wed 03:24:00 PM -36.5407 173.3919 297° West  Level FlightAware Approximate
Wed 03:25:00 PM -36.4874 173.2622 297° West  Level FlightAware Approximate
Wed 03:26:00 PM -36.4341 173.1326 297° West  Level FlightAware Approximate
Wed 03:27:00 PM -36.3806 173.0033 297° West  Level FlightAware Approximate
Wed 03:28:00 PM -36.3269 172.8741 297° West  Level FlightAware Approximate
Wed 03:29:00 PM -36.2731 172.7451 297° West  Level FlightAware Approximate
Wed 03:30:00 PM -36.2192 172.6163 297° West  Level FlightAware Approximate
Wed 03:31:00 PM -36.1651 172.4877 297° West  Level FlightAware Approximate
Wed 03:32:00 PM -36.1109 172.3592 298° West  Level FlightAware Approximate
Wed 03:33:00 PM -36.0566 172.2309 298° West  Level FlightAware Approximate
Wed 03:34:00 PM -36.0021 172.1028 298° West  Level FlightAware Approximate
Wed 03:35:00 PM -35.9475 171.9749 298° West  Level FlightAware Approximate
Wed 03:36:00 PM -35.8928 171.8472 298° West  Level FlightAware Approximate
Wed 03:37:00 PM -35.8379 171.7196 298° West  Level FlightAware Approximate
Wed 03:38:00 PM -35.7829 171.5922 298° West  Level FlightAware Approximate
Wed 03:39:00 PM -35.7277 171.4650 298° West  Level FlightAware Approximate
Wed 03:40:00 PM -35.6724 171.3379 298° West  Level FlightAware Approximate
Wed 03:41:00 PM -35.6170 171.2110 298° West  Level FlightAware Approximate
Wed 03:42:00 PM -35.5620 171.0841 294° West  Level FlightAware Approximate
Wed 03:43:00 PM -35.5137 170.9530 294° West  Level FlightAware Approximate
Wed 03:44:00 PM -35.4654 170.8221 294° West  Level FlightAware Approximate
Wed 03:45:00 PM -35.4168 170.6914 294° West  Level FlightAware Approximate
Wed 03:46:00 PM -35.3682 170.5608 295° West  Level FlightAware Approximate
Wed 03:47:00 PM -35.3194 170.4303 295° West  Level FlightAware Approximate
Wed 03:48:00 PM -35.2704 170.3001 295° West  Level FlightAware Approximate
Wed 03:49:00 PM -35.2214 170.1700 295° West  Level FlightAware Approximate
Wed 03:50:00 PM -35.1721 170.0400 295° West  Level FlightAware Approximate
Wed 03:51:00 PM -35.1228 169.9102 295° West  Level FlightAware Approximate
Wed 03:52:00 PM -35.0733 169.7806 295° West  Level FlightAware Approximate
Wed 03:53:00 PM -35.0236 169.6511 295° West  Level FlightAware Approximate
Wed 03:54:00 PM -34.9739 169.5217 295° West  Level FlightAware Approximate
Wed 03:55:00 PM -34.9240 169.3926 295° West  Level FlightAware Approximate
Wed 03:56:00 PM -34.8739 169.2636 295° West  Level FlightAware Approximate
Wed 03:57:00 PM -34.8237 169.1347 295° West  Level FlightAware Approximate
Wed 03:58:00 PM -34.7734 169.0060 295° West  Level FlightAware Approximate
Wed 03:59:00 PM -34.7230 168.8775 295° West  Level FlightAware Approximate
Wed 04:00:00 PM -34.6724 168.7491 296° West  Level FlightAware Approximate
Wed 04:01:00 PM -34.6217 168.6209 296° West  Level FlightAware Approximate
Wed 04:02:00 PM -34.5708 168.4928 296° West  Level FlightAware Approximate
Wed 04:03:00 PM -34.5198 168.3649 296° West  Level FlightAware Approximate
Wed 04:04:00 PM -34.4687 168.2371 296° West  Level FlightAware Approximate
Wed 04:05:00 PM -34.4174 168.1095 296° West  Level FlightAware Approximate
Wed 04:06:00 PM -34.3660 167.9821 296° West  Level FlightAware Approximate
Wed 04:07:00 PM -34.3145 167.8548 296° West  Level FlightAware Approximate
Wed 04:08:00 PM -34.2629 167.7277 296° West  Level FlightAware Approximate
Wed 04:09:00 PM -34.2111 167.6007 296° West  Level FlightAware Approximate
Wed 04:10:00 PM -34.1592 167.4739 296° West  Level FlightAware Approximate
Wed 04:11:00 PM -34.1071 167.3472 296° West  Level FlightAware Approximate
Wed 04:12:00 PM -34.0549 167.2207 296° West  Level FlightAware Approximate
Wed 04:13:00 PM -34.0026 167.0943 297° West  Level FlightAware Approximate
Wed 04:14:00 PM -33.9502 166.9682 297° West  Level FlightAware Approximate
Wed 04:15:00 PM -33.8977 166.8421 297° West  Level FlightAware Approximate
Wed 04:16:00 PM -33.8450 166.7162 297° West  Level FlightAware Approximate
Wed 04:17:00 PM -33.7921 166.5905 297° West  Level FlightAware Approximate
Wed 04:18:00 PM -33.7392 166.4649 297° West  Level FlightAware Approximate
Wed 04:19:00 PM -33.6861 166.3395 297° West  Level FlightAware Approximate
Wed 04:20:00 PM -33.6329 166.2143 297° West  Level FlightAware Approximate
Wed 04:21:00 PM -33.5796 166.0892 297° West  Level FlightAware Approximate
Wed 04:22:00 PM -33.5261 165.9642 297° West  Level FlightAware Approximate
Wed 04:23:00 PM -33.4726 165.8394 297° West  Level FlightAware Approximate
Wed 04:24:00 PM -33.4189 165.7148 297° West  Level FlightAware Approximate
Wed 04:25:00 PM -33.3650 165.5903 297° West  Level FlightAware Approximate
Wed 04:26:00 PM -33.3111 165.4659 297° West  Level FlightAware Approximate
Wed 04:27:00 PM -33.2570 165.3418 297° West  Level FlightAware Approximate
Wed 04:28:00 PM -33.2028 165.2177 298° West  Level FlightAware Approximate
Wed 04:29:00 PM -33.1485 165.0938 298° West  Level FlightAware Approximate
Wed 04:30:00 PM -33.0941 164.9701 298° West  Level FlightAware Approximate
Wed 04:31:00 PM -33.0395 164.8466 298° West  Level FlightAware Approximate
Wed 04:32:00 PM -32.9848 164.7231 298° West  Level FlightAware Approximate
Wed 04:33:00 PM -32.9300 164.5999 298° West  Level FlightAware Approximate
Wed 04:34:00 PM -32.8751 164.4768 298° West  Level FlightAware Approximate
Wed 04:35:00 PM -32.8200 164.3538 298° West  Level FlightAware Approximate
Wed 04:36:00 PM -32.7648 164.2310 298° West  Level FlightAware Approximate
Wed 04:37:00 PM -32.7095 164.1084 298° West  Level FlightAware Approximate
Wed 04:38:00 PM -32.6541 163.9859 298° West  Level FlightAware Approximate
Wed 04:39:00 PM -32.5986 163.8635 298° West  Level FlightAware Approximate
Wed 04:40:00 PM -32.5430 163.7413 298° West  Level FlightAware Approximate
Wed 04:41:00 PM -32.4872 163.6193 298° West  Level FlightAware Approximate
Wed 04:42:00 PM -32.4314 163.4974 298° West  Level FlightAware Approximate
Wed 04:43:00 PM -32.3754 163.3756 299° West  Level FlightAware Approximate
Wed 04:44:00 PM -32.3192 163.2540 299° West  Level FlightAware Approximate
Wed 04:45:00 PM -32.2630 163.1326 299° West  Level FlightAware Approximate
Wed 04:46:00 PM -32.2067 163.0113 299° West  Level FlightAware Approximate
Wed 04:47:00 PM -32.1502 162.8902 299° West  Level FlightAware Approximate
Wed 04:48:00 PM -32.0936 162.7692 299° West  Level FlightAware Approximate
Wed 04:48:01 PM -32.3898 163.4097 299° West 24,000  Level Aus ATC (Calculated)
Wed 04:49:53 PM -32.2905 163.1947 299° West 24,000 218 Level Aus ATC (Calculated)
Wed 04:49:53 PM -32.2905 163.1948 299° West 24,000 227 Level Aus ATC (Calculated)
Wed 04:50:00 PM -32.2844 163.1813 299° West  Level FlightAware Approximate
Wed 04:51:00 PM -32.2309 163.0664 299° West  Level FlightAware Approximate
Wed 04:52:00 PM -32.1775 162.9516 299° West  Level FlightAware Approximate
Wed 04:52:08 PM -32.1686 162.9325 299° West 24,000  Level Aus ATC (Calculated)
Wed 04:53:00 PM -32.1240 162.8370 299° West  Level FlightAware Approximate
Wed 04:54:00 PM -32.0685 162.7186 299° West  Level FlightAware Approximate
Wed 04:55:00 PM -32.0148 162.6043 299° West  Level FlightAware Approximate
Wed 04:56:00 PM -31.9609 162.4900 299° West  Level FlightAware Approximate
Wed 04:57:00 PM -31.9070 162.3759 299° West  Level FlightAware Approximate
Wed 04:58:00 PM -31.8529 162.2619 299° West  Level FlightAware Approximate
Wed 04:59:00 PM -31.7987 162.1480 299° West  Level FlightAware Approximate
Wed 04:59:22 PM -31.7904 162.1304 299° West 24,000  Level Aus ATC (Calculated)
Wed 05:01:00 PM -31.7017 161.9448 299° West  Level FlightAware Approximate
Wed 05:02:00 PM -31.6472 161.8313 299° West  Level FlightAware Approximate
Wed 05:03:00 PM -31.5927 161.7179 299° West  Level FlightAware Approximate
Wed 05:03:27 PM -31.5814 161.6945 299° West 24,000  Level Aus ATC (Calculated)
Wed 05:03:39 PM -31.5814 161.6945 299° West 24,000 324 Level Aus ATC (Calculated)
Wed 05:05:00 PM -31.5103 161.5473 300° West  Level FlightAware Approximate
Wed 05:06:00 PM -31.4574 161.4383 300° West  Level FlightAware Approximate
Wed 05:07:00 PM -31.4045 161.3295 300° West  Level FlightAware Approximate
Wed 05:08:00 PM -31.3515 161.2208 300° West  Level FlightAware Approximate
Wed 05:08:21 PM -31.3095 161.1348 300° West 24,000  Level Aus ATC (Calculated)
Wed 05:10:00 PM -31.2217 160.9559 300° West  Level FlightAware Approximate
Wed 05:11:00 PM -31.1684 160.8476 300° West  Level FlightAware Approximate
Wed 05:12:00 PM -31.1150 160.7395 300° West  Level FlightAware Approximate
Wed 05:13:00 PM -31.0615 160.6314 300° West  Level FlightAware Approximate
Wed 05:13:21 PM -31.0303 160.5684 300° West 24,000  Level Aus ATC (Calculated)
Wed 05:15:00 PM -30.9417 160.3905 300° West  Level FlightAware Approximate
Wed 05:16:00 PM -30.8879 160.2829 300° West  Level FlightAware Approximate
Wed 05:17:00 PM -30.8341 160.1754 300° West  Level FlightAware Approximate
Wed 05:18:00 PM -30.7801 160.0680 300° West  Level FlightAware Approximate
Wed 05:18:20 PM -30.7530 160.0141 300° West 24,000  Level Aus ATC (Calculated)
Wed 05:18:20 PM -30.7530 160.0141 300° West 24,000 609 Level Aus ATC (Calculated)
Wed 05:20:00 PM -30.6628 159.8354 300° West  Level FlightAware Approximate
Wed 05:21:00 PM -30.6085 159.7284 300° West  Level FlightAware Approximate
Wed 05:22:00 PM -30.5542 159.6216 300° West  Level FlightAware Approximate
Wed 05:23:00 PM -30.4998 159.5148 301° West  Level FlightAware Approximate
Wed 05:23:20 PM -30.4860 159.4877 301° West 24,000  Level Aus ATC (Calculated)
Wed 05:25:00 PM -30.3951 159.3101 301° West  Level FlightAware Approximate
Wed 05:26:00 PM -30.3404 159.2037 301° West  Level FlightAware Approximate
Wed 05:27:00 PM -30.2857 159.0974 301° West  Level FlightAware Approximate
Wed 05:27:43 PM -30.2591 159.0458 301° West 24,000  Level Aus ATC (Calculated)
Wed 05:28:19 PM -30.2207 158.9714 301° West 24,000 1,370 Level Aus ATC (Calculated)
Wed 05:30:00 PM -30.1286 158.7939 301° West  Level FlightAware Approximate
Wed 05:31:00 PM -30.0738 158.6886 301° West  Level FlightAware Approximate
Wed 05:32:00 PM -30.0189 158.5834 301° West  Level FlightAware Approximate
Wed 05:33:00 PM -29.9639 158.4783 301° West  Level FlightAware Approximate
Wed 05:33:19 PM -29.9213 158.3970 301° West 24,000  Level Aus ATC (Calculated)
Wed 05:34:14 PM -29.8649 158.2897 301° West 24,000 5,374 Level Aus ATC (Calculated)
Wed 05:35:14 PM -29.6703 157.9183 301° West 329 379 34,300 3,887 Climbing Aus ATC (RADAR)
Wed 05:36:53 PM -29.5855 157.7611 302° West 334 384 34,300  Level Aus ATC (RADAR)
Wed 05:37:08 PM -29.5734 157.7371 300° West 334 384 34,300 -120 Level Aus ATC (RADAR)
Wed 05:37:43 PM -29.5435 157.6822 302° West 335 386 34,200  Descending Aus ATC (RADAR)
Wed 05:38:43 PM -29.4929 157.5873 301° West 337 388 34,300 63 Climbing Aus ATC (RADAR)
Wed 05:39:18 PM -29.4626 157.5321 302° West 338 389 34,300  Level Aus ATC (RADAR)
Wed 05:40:18 PM -29.4116 157.4366 302° West 340 391 34,300  Level Aus ATC (RADAR)
Wed 05:40:53 PM -29.3819 157.3814 302° West 339 390 34,300 -462 Level Aus ATC (RADAR)
Wed 05:40:57 PM -29.3840 157.3860 302° West 348 400 34,000 -409 Descending FlightAware ADS-B
Wed 05:41:37 PM -29.3480 157.3190 302° West 349 402 34,000 295 Level FlightAware ADS-B
Wed 05:41:58 PM -29.3268 157.2779 302° West 341 392 34,300 500 Climbing Aus ATC (RADAR)
Wed 05:42:13 PM -29.3133 157.2542 303° West 341 392 34,300 -462 Level Aus ATC (RADAR)
Wed 05:42:37 PM -29.2950 157.2220 303° West 350 403 34,000 -305 Descending FlightAware ADS-B
Wed 05:43:12 PM -29.2690 157.1700 300° West 350 403 34,000  Level FlightAware ADS-B
Wed 05:43:48 PM -29.2317 157.1029 300° West 341 392 34,000  Level Aus ATC (RADAR)
Wed 05:43:57 PM -29.2580 157.1510 300° West 354 407 34,000  Level FlightAware ADS-B
Wed 05:44:23 PM -29.2013 157.0475 300° West 342 394 34,000  Level Aus ATC (RADAR)
Wed 05:44:37 PM -29.1980 157.0370 300° West 351 404 34,000  Level FlightAware ADS-B
Wed 05:45:17 PM -29.1700 156.9830 301° West 351 404 34,000  Level FlightAware ADS-B
Wed 05:45:58 PM -29.1196 156.8967 301° West 341 392 34,000  Level Aus ATC (RADAR)
Wed 05:46:02 PM -29.1210 156.9000 301° West 349 402 34,000  Level FlightAware ADS-B
Wed 05:46:47 PM -29.0810 156.8270 302° West 348 400 34,000  Level FlightAware ADS-B
Wed 05:47:27 PM -29.0460 156.7630 302° West 346 398 34,000  Level FlightAware ADS-B
Wed 05:47:48 PM -29.0256 156.7231 302° West 338 389 34,000  Level Aus ATC (RADAR)
Wed 05:48:12 PM -29.0130 156.7000 302° West 345 397 34,000  Level FlightAware ADS-B
Wed 05:48:52 PM -28.9860 156.6460 300° West 345 397 34,000  Level FlightAware ADS-B
Wed 05:49:22 PM -28.9436 156.5748 300° West 339 390 34,000  Level Aus ATC (RADAR)
Wed 05:49:32 PM -28.9590 156.5930 300° West 345 397 34,000  Level FlightAware ADS-B
Wed 05:49:57 PM -28.9132 156.5208 300° West 338 389 34,000  Level Aus ATC (RADAR)
Wed 05:50:17 PM -28.9020 156.5000 300° West 344 396 34,000  Level FlightAware ADS-B
Wed 05:50:52 PM -28.8710 156.4450 300° West 343 395 34,000 300 Level FlightAware ADS-B
Wed 05:50:57 PM -28.8627 156.4282 300° West 332 382 34,200 218 Climbing Aus ATC (RADAR)
Wed 05:51:47 PM -28.8253 156.3598 300° West 295 339 34,200 -240 Level Aus ATC (RADAR)
Wed 05:51:47 PM -28.8310 156.3710 300° West 310 357 34,000 -240 Descending FlightAware ADS-B
Wed 05:52:37 PM -28.7990 156.3120 302° West 310 357 34,000 141 Level FlightAware ADS-B
Wed 05:53:12 PM -28.7619 156.2465 302° West 292 336 34,200  Climbing Aus ATC (RADAR)
Wed 05:53:17 PM -28.7640 156.2490 302° West 300 345 34,000 -240 Descending FlightAware ADS-B
Wed 05:54:02 PM -28.7260 156.1820 303° West 295 339 34,000  Level FlightAware ADS-B
Wed 05:54:42 PM -28.6980 156.1310 302° West 301 346 34,000  Level FlightAware ADS-B
Wed 05:55:32 PM -28.6650 156.0720 303° West 302 348 34,000  Level FlightAware ADS-B
Wed 05:56:22 PM -28.6240 155.9980 302° West 299 344 34,000  Level FlightAware ADS-B
Wed 05:57:02 PM -28.5960 155.9470 302° West 299 344 34,000 200 Level FlightAware ADS-B
Wed 05:57:22 PM -28.5777 155.9126 302° West 292 336 34,200 343 Climbing Aus ATC (RADAR)
Wed 05:57:37 PM -28.5664 155.8929 303° West 290 334 34,200 -800 Level Aus ATC (RADAR)
Wed 05:57:37 PM -28.5700 155.9010 303° West 299 344 34,000  Descending FlightAware ADS-B
Wed 05:58:16 PM -28.5366 155.8404 303° West 290 334 34,200  Climbing Aus ATC (RADAR)
Wed 05:58:22 PM -28.5390 155.8450 303° West 299 344 34,000 -261 Descending FlightAware ADS-B
Wed 05:59:02 PM -28.5140 155.8000 302° West 299 344 34,000 203 Level FlightAware ADS-B
Wed 05:59:21 PM -28.4886 155.7546 302° West 290 334 34,200 222 Climbing Aus ATC (RADAR)
Wed 05:59:56 PM -28.4626 155.7086 303° West 291 335 34,200 -293 Level Aus ATC (RADAR)
Wed 06:00:02 PM -28.4630 155.7090 303° West 298 343 34,000 -235 Descending FlightAware ADS-B
Wed 06:00:47 PM -28.4290 155.6490 303° West 298 343 34,000  Level FlightAware ADS-B
Wed 06:01:27 PM -28.3940 155.5970 307° West 304 350 34,000  Level FlightAware ADS-B
Wed 06:02:37 PM -28.3250 155.5270 318° Northwest 306 352 34,000 130 Level FlightAware ADS-B
Wed 06:02:59 PM -28.3333 155.5347 318° Northwest 298 343 34,200  Climbing Aus ATC (RADAR)
Wed 06:03:22 PM -28.2830 155.4820 318° Northwest 306 352 34,000  Descending FlightAware ADS-B
Wed 06:03:37 PM -28.2594 155.4590 318° Northwest 301 346 34,200 154 Climbing Aus ATC (RADAR)
Wed 06:03:57 PM -28.2370 155.4350 318° Northwest 34,000  Descending FlightAware ADS-B
Wed 06:04:40 PM -28.1960 155.3932 318° Northwest 305 351 34,200  Climbing Aus ATC (RADAR)
Wed 06:04:57 PM -28.1750 155.3700 318° Northwest 310 357 34,000  Descending FlightAware ADS-B
Wed 06:05:12 PM -28.1538 155.3489 318° Northwest 307 353 34,200  Climbing Aus ATC (RADAR)
Wed 06:05:37 PM -28.1400 155.3320 318° Northwest 310 357 34,000  Descending FlightAware ADS-B
Wed 06:06:17 PM -28.0839 155.2766 318° Northwest 309 356 34,200  Climbing Aus ATC (RADAR)
Wed 06:06:17 PM -28.1040 155.2950 318° Northwest 310 357 34,000 -240 Descending FlightAware ADS-B
Wed 06:07:07 PM -28.0590 155.2480 317° Northwest 310 357 34,000 81 Level FlightAware ADS-B
Wed 06:07:57 PM -27.9820 155.1700 318° Northwest 34,000 121 Level FlightAware ADS-B
Wed 06:08:46 PM -27.9213 155.1069 318° Northwest 313 360 34,200  Climbing Aus ATC (RADAR)
Wed 06:08:57 PM -27.9130 155.0980 318° Northwest 316 364 34,000  Descending FlightAware ADS-B
Wed 06:09:35 PM -27.8665 155.0499 318° Northwest 315 362 34,200  Climbing Aus ATC (RADAR)
Wed 06:09:42 PM -27.8650 155.0480 318° Northwest 316 364 34,000 -255 Descending FlightAware ADS-B
Wed 06:10:22 PM -27.8220 155.0020 317° Northwest 322 371 34,000 -80 Level FlightAware ADS-B
Wed 06:10:57 PM -27.7830 154.9610 317° Northwest 324 373 33,900 -1,538 Descending FlightAware ADS-B
Wed 06:11:01 PM -27.7740 154.9517 317° Northwest 324 373 33,000 -3,000 Descending Aus ATC (RADAR)
Wed 06:11:47 PM -27.7270 154.9000 316° Northwest 317 365 31,400 -1,865 Descending FlightAware ADS-B
Wed 06:12:15 PM -27.6934 154.8644 316° Northwest 313 360 30,700 -1,650 Descending Aus ATC (RADAR)
Wed 06:12:27 PM -27.6830 154.8530 316° Northwest 313 360 30,300 -1,915 Descending FlightAware ADS-B
Wed 06:13:02 PM -27.6500 154.8180 317° Northwest 311 358 29,200 -1,966 Descending FlightAware ADS-B
Wed 06:13:25 PM -27.6195 154.7861 317° Northwest 310 357 28,400 -2,211 Descending Aus ATC (RADAR)
Wed 06:13:40 PM -27.6044 154.7690 315° West 310 357 27,800 -2,444 Descending Aus ATC (RADAR)
Wed 06:13:52 PM -27.5970 154.7600 315° West 316 364 27,300 -2,229 Descending FlightAware ADS-B
Wed 06:14:15 PM -27.5677 154.7285 315° West 315 362 26,500 -1,950 Descending Aus ATC (RADAR)
Wed 06:14:32 PM -27.5550 154.7150 315° West 311 358 26,000 -1,200 Descending FlightAware ADS-B
Wed 06:15:15 PM -27.5022 154.6628 315° West 311 358 25,300 -1,100 Descending Aus ATC (RADAR)
Wed 06:15:32 PM -27.4960 154.6450 315° West 302 348 24,900 -1,029 Descending FlightAware ADS-B
Wed 06:15:50 PM -27.4885 154.6098 315° West 304 350 24,700 -1,000 Descending Aus ATC (RADAR)
Wed 06:16:02 PM -27.4850 154.5950 315° West 307 353 24,400 -1,400 Descending FlightAware ADS-B
Wed 06:16:50 PM -27.4676 154.5171 315° West 302 348 23,300 -1,560 Descending Aus ATC (RADAR)
Wed 06:16:52 PM -27.4680 154.5200 315° West 306 352 23,100 -1,787 Descending FlightAware ADS-B
Wed 06:17:37 PM -27.4510 154.4490 285° West 309 356 21,900 -1,553 Descending FlightAware ADS-B
Wed 06:18:17 PM -27.4360 154.3850 285° West 314 361 20,900 -1,425 Descending FlightAware ADS-B
Wed 06:18:57 PM -27.4220 154.3200 284° West 316 364 20,000 -1,412 Descending FlightAware ADS-B
Wed 06:19:42 PM -27.4070 154.2480 283° West 323 372 18,900 -1,233 Descending FlightAware ADS-B
Wed 06:20:10 PM -27.4083 154.1985 283° West 327 376 18,500 -1,050 Descending Aus ATC (RADAR)
Wed 06:20:22 PM -27.4200 154.1820 283° West 332 382 18,200 -1,053 Descending FlightAware ADS-B
Wed 06:21:07 PM -27.4700 154.1330 221° Southwest 322 371 17,500 -1,075 Descending FlightAware ADS-B
Wed 06:21:29 PM -27.4979 154.1068 221° Southwest 321 369 17,000 -2,100 Descending Aus ATC (RADAR)
Wed 06:21:47 PM -27.5160 154.0880 221° Southwest 329 379 16,100 -1,966 Descending FlightAware ADS-B
Wed 06:22:27 PM -27.5600 154.0420 223° Southwest 329 379 15,100 -1,050 Descending FlightAware ADS-B
Wed 06:23:07 PM -27.5970 153.9890 232° Southwest 317 365 14,700 -421 Descending FlightAware ADS-B
Wed 06:23:24 PM -27.5994 153.9590 232° Southwest 314 361 14,700 -600 Level Aus ATC (RADAR)
Wed 06:23:47 PM -27.5870 153.9270 232° Southwest 312 359 14,300 -1,048 Descending FlightAware ADS-B
Wed 06:24:27 PM -27.5640 153.8650 293° West 312 359 13,600 -947 Descending FlightAware ADS-B
Wed 06:24:44 PM -27.5535 153.8388 293° West 306 352 13,400 -1,333 Descending Aus ATC (RADAR)
Wed 06:25:12 PM -27.5390 153.8000 293° West 302 348 12,600 -1,448 Descending FlightAware ADS-B
Wed 06:25:42 PM -27.5240 153.7580 292° West 300 345 12,000 -1,161 Descending FlightAware ADS-B
Wed 06:26:14 PM -27.5045 153.7077 292° West 299 344 11,400 -1,500 Descending Aus ATC (RADAR)
Wed 06:26:22 PM -27.5010 153.6980 292° West 308 354 11,000 -1,371 Descending FlightAware ADS-B
Wed 06:26:49 PM -27.4850 153.6565 292° West 303 349 10,600 -1,600 Descending Aus ATC (RADAR)
Wed 06:27:07 PM -27.4760 153.6330 292° West 308 354 9,800 -1,953 Descending FlightAware ADS-B
Wed 06:27:32 PM -27.4620 153.5950 293° West 305 351 9,200 -1,418 Descending FlightAware ADS-B
Wed 06:28:02 PM -27.4450 153.5510 294° West 302 348 8,500 -1,467 Descending FlightAware ADS-B
Wed 06:28:17 PM -27.4370 153.5300 293° West 302 348 8,100 -1,135 Descending FlightAware ADS-B
Wed 06:28:39 PM -27.4203 153.4990 293° West 298 343 7,800 -1,200 Descending Aus ATC (RADAR)
Wed 06:28:42 PM -27.4190 153.4970 293° West 300 345 7,600 -1,333 Descending FlightAware ADS-B
Wed 06:28:57 PM -27.4040 153.4820 318° Northwest 300 345 7,400 -750 Descending FlightAware ADS-B
Wed 06:29:14 PM -27.3845 153.4620 318° Northwest 296 341 7,200 -1,200 Descending Aus ATC (RADAR)
Wed 06:29:27 PM -27.3730 153.4490 318° Northwest 291 335 6,800 -1,263 Descending FlightAware ADS-B
Wed 06:29:52 PM -27.3500 153.4250 317° Northwest 285 328 6,400 -766 Descending FlightAware ADS-B
Wed 06:30:14 PM -27.3264 153.4006 317° Northwest 282 325 6,200 -1,000 Descending Aus ATC (RADAR)
Wed 06:30:22 PM -27.3200 153.3940 317° Northwest 282 325 5,900 -1,059 Descending FlightAware ADS-B
Wed 06:30:48 PM -27.2930 153.3663 317° Northwest 277 319 5,600 -1,000 Descending Aus ATC (RADAR)
Wed 06:30:52 PM -27.2920 153.3650 317° Northwest 279 321 5,400 -1,241 Descending FlightAware ADS-B
Wed 06:31:17 PM -27.2670 153.3390 317° Northwest 273 314 5,000 -982 Descending FlightAware ADS-B
Wed 06:31:47 PM -27.2400 153.3170 324° Northwest 259 298 4,500 -873 Descending FlightAware ADS-B
Wed 06:32:12 PM -27.2160 153.2970 323° Northwest 244 281 4,200 -900 Descending FlightAware ADS-B
Wed 06:32:27 PM -27.2080 153.2790 297° West 236 272 3,900 -933 Descending FlightAware ADS-B
Wed 06:32:57 PM -27.2100 153.2440 266° West 208 239 3,500 -720 Descending FlightAware ADS-B
Wed 06:33:17 PM -27.2150 153.2270 266° West 196 226 3,300  Descending FlightAware ADS-B
Wed 06:33:18 PM -27.2169 153.2224 266° West 205 236 3,500 -571 Climbing Aus ATC (RADAR)
Wed 06:33:38 PM -27.2329 153.2150 266° West 190 219 3,100 -1,412 Descending Aus ATC (RADAR)
Wed 06:33:52 PM -27.2410 153.2110 266° West 181 208 2,700 -1,241 Descending FlightAware ADS-B
Wed 06:34:07 PM -27.2520 153.2050 206° Southwest 178 205 2,500 -900 Descending FlightAware ADS-B
Wed 06:34:52 PM -27.2840 153.1860 208° Southwest 173 199 1,800 -900 Descending FlightAware ADS-B
Wed 06:35:07 PM -27.2940 153.1800 208° Southwest 166 191 1,600 -652 Descending FlightAware ADS-B
Wed 06:35:38 PM -27.3174 153.1673 208° Southwest 157 181 1,300 -554 Descending Aus ATC (RADAR)
Wed 06:36:12 PM -27.3350 153.1570 208° Southwest 147 169 1,000 -764 Descending FlightAware ADS-B
Wed 06:36:33 PM -27.3497 153.1489 208° Southwest 141 162 600 -1,200 Descending Aus ATC (RADAR)
Wed 06:36:57 PM -27.3610 153.1420 208° Southwest 133 153 100 -612 Descending FlightAware ADS-B
Wed 06:37:22 PM -27.3740 153.1350 206° Southwest 135 155 100  Level FlightAware ADS-B

Login

Don't have an account? Register now (free) for customized features, flight alerts, and more!